createdAt,value
2019-02-23T00:00:51.837Z,14.45
2019-02-23T00:03:19.741Z,15.28
2019-02-23T00:05:47.717Z,14.87
2019-02-23T00:08:17.318Z,14.15
2019-02-23T00:10:46.457Z,13.78
2019-02-23T00:13:18.444Z,14.05
2019-02-23T00:15:47.452Z,13.80
2019-02-23T00:18:15.369Z,14.18
2019-02-23T00:20:43.275Z,13.43
2019-02-23T00:23:11.210Z,14.40
2019-02-23T00:25:39.121Z,13.78
2019-02-23T00:28:07.581Z,13.15
2019-02-23T00:30:37.794Z,13.35
2019-02-23T00:33:09.385Z,11.97
2019-02-23T00:35:37.309Z,14.68
2019-02-23T00:38:05.453Z,11.97
2019-02-23T00:40:36.386Z,13.08
2019-02-23T00:43:04.358Z,14.00
2019-02-23T00:45:32.294Z,12.35
2019-02-23T00:48:00.461Z,13.08
2019-02-23T00:50:30.283Z,11.20
2019-02-23T00:52:58.533Z,11.73
2019-02-23T00:55:29.052Z,12.55
2019-02-23T00:57:57.277Z,13.45
2019-02-23T01:00:25.250Z,13.18
2019-02-23T01:02:53.169Z,13.55
2019-02-23T01:05:23.147Z,12.30
2019-02-23T01:07:51.100Z,11.97
2019-02-23T01:10:19.659Z,12.90
2019-02-23T01:12:49.245Z,12.35
2019-02-23T01:15:17.147Z,11.88
2019-02-23T01:17:46.638Z,12.50
2019-02-23T01:20:14.685Z,11.83
2019-02-23T01:22:42.701Z,11.43
2019-02-23T01:25:10.656Z,12.78
2019-02-23T01:27:38.559Z,13.15
2019-02-23T01:30:08.267Z,12.78
2019-02-23T01:32:36.120Z,12.13
2019-02-23T01:35:04.257Z,13.48
2019-02-23T01:37:32.209Z,12.50
2019-02-23T01:40:00.802Z,12.73
2019-02-23T01:42:28.728Z,12.65
2019-02-23T01:44:57.222Z,13.30
2019-02-23T01:47:25.122Z,11.75
2019-02-23T01:49:58.829Z,13.22
2019-02-23T01:52:22.741Z,12.85
2019-02-23T01:54:51.656Z,12.07
2019-02-23T01:57:19.575Z,13.55
2019-02-23T01:59:48.565Z,13.85
2019-02-23T02:02:17.033Z,12.33
2019-02-23T02:04:45.026Z,12.53
2019-02-23T02:07:14.818Z,13.10
2019-02-23T02:09:46.360Z,12.33
2019-02-23T02:12:15.555Z,13.78
2019-02-23T02:14:46.436Z,12.43
2019-02-23T02:17:14.381Z,13.93
2019-02-23T02:19:42.725Z,13.10
2019-02-23T02:22:14.372Z,13.75
2019-02-23T02:24:42.273Z,13.22
2019-02-23T02:27:10.224Z,12.55
2019-02-23T02:29:38.122Z,13.10
2019-02-23T02:32:06.437Z,12.93
2019-02-23T02:34:34.450Z,13.20
2019-02-23T02:37:02.352Z,13.78
2019-02-23T02:39:30.303Z,13.72
2019-02-23T02:41:58.442Z,12.47
2019-02-23T02:44:27.551Z,13.93
2019-02-23T02:46:55.971Z,12.13
2019-02-23T02:49:25.893Z,12.90
2019-02-23T02:52:05.436Z,12.70
2019-02-23T02:54:33.349Z,12.55
2019-02-23T02:57:01.263Z,12.35
2019-02-23T02:59:30.574Z,11.85
2019-02-23T03:01:59.007Z,12.20
2019-02-23T03:04:26.982Z,11.85
2019-02-23T03:06:55.886Z,11.78
2019-02-23T03:09:24.882Z,13.08
2019-02-23T03:11:55.368Z,13.13
2019-02-23T03:14:28.862Z,13.15
2019-02-23T03:16:56.768Z,12.40
2019-02-23T03:19:25.095Z,12.13
2019-02-23T03:21:53.490Z,11.65
2019-02-23T03:24:22.511Z,13.10
2019-02-23T03:26:50.452Z,12.80
2019-02-23T03:29:18.508Z,11.60
2019-02-23T03:31:48.994Z,13.10
2019-02-23T03:34:19.514Z,10.98
2019-02-23T03:36:47.934Z,10.50
2019-02-23T03:39:15.874Z,11.15
2019-02-23T03:41:46.105Z,12.43
2019-02-23T03:44:14.051Z,10.65
2019-02-23T03:46:43.475Z,12.60
2019-02-23T03:49:14.620Z,12.47
2019-02-23T03:51:53.296Z,11.33
2019-02-23T03:54:21.201Z,11.45
2019-02-23T03:56:49.136Z,11.33
2019-02-23T03:59:17.338Z,11.90
2019-02-23T04:01:45.302Z,11.73
2019-02-23T04:04:13.537Z,11.68
2019-02-23T04:06:41.530Z,9.95
2019-02-23T04:09:11.438Z,11.35
2019-02-23T04:11:39.901Z,10.15
2019-02-23T04:14:08.809Z,10.75
2019-02-23T04:16:38.918Z,12.43
2019-02-23T04:19:06.797Z,12.90
2019-02-23T04:21:34.806Z,12.95
2019-02-23T04:24:02.752Z,12.00
2019-02-23T04:26:31.153Z,12.60
2019-02-23T04:28:59.076Z,13.28
2019-02-23T04:31:27.131Z,13.58
2019-02-23T04:33:55.042Z,13.03
2019-02-23T04:36:24.110Z,12.40
2019-02-23T04:38:53.537Z,13.15
2019-02-23T04:41:21.439Z,12.80
2019-02-23T04:43:50.769Z,13.30
2019-02-23T04:46:19.807Z,14.40
2019-02-23T04:48:47.674Z,13.25
2019-02-23T04:51:16.980Z,13.40
2019-02-23T04:53:45.046Z,12.90
2019-02-23T04:56:12.934Z,14.07
2019-02-23T04:58:40.871Z,13.15
2019-02-23T05:01:08.749Z,14.93
2019-02-23T05:03:36.630Z,14.40
2019-02-23T05:06:06.616Z,13.80
2019-02-23T05:08:34.673Z,14.25
2019-02-23T05:11:02.615Z,14.05
2019-02-23T05:13:30.575Z,12.30
2019-02-23T05:15:58.544Z,12.55
2019-02-23T05:18:27.639Z,13.53
2019-02-23T05:20:55.609Z,13.55
2019-02-23T05:23:23.586Z,14.30
2019-02-23T05:25:51.583Z,13.68
2019-02-23T05:28:20.011Z,13.60
2019-02-23T05:30:47.873Z,13.70
2019-02-23T05:33:21.021Z,14.85
2019-02-23T05:35:49.000Z,14.23
2019-02-23T05:38:16.909Z,14.87
2019-02-23T05:40:45.233Z,13.43
2019-02-23T05:43:15.778Z,14.30
2019-02-23T05:45:43.670Z,14.70
2019-02-23T05:48:11.589Z,14.45
2019-02-23T05:50:39.880Z,16.05
2019-02-23T05:53:09.843Z,16.20
2019-02-23T05:55:37.788Z,14.85
2019-02-23T05:58:10.240Z,14.28
2019-02-23T06:00:39.318Z,15.48
2019-02-23T06:03:07.245Z,16.40
2019-02-23T06:05:35.261Z,14.75
2019-02-23T06:08:03.515Z,14.98
2019-02-23T06:10:31.694Z,17.17
2019-02-23T06:12:59.633Z,17.42
2019-02-23T06:15:27.574Z,15.85
2019-02-23T06:17:57.470Z,16.02
2019-02-23T06:20:25.401Z,16.90
2019-02-23T06:22:54.408Z,15.45
2019-02-23T06:25:22.521Z,15.23
2019-02-23T06:27:50.744Z,15.28
2019-02-23T06:30:20.679Z,16.05
2019-02-23T06:32:48.607Z,14.58
2019-02-23T06:35:16.638Z,17.85
2019-02-23T06:37:53.439Z,15.25
2019-02-23T06:40:23.669Z,16.37
2019-02-23T06:42:54.667Z,15.40
2019-02-23T06:45:22.756Z,16.30
2019-02-23T06:47:50.650Z,16.95
2019-02-23T06:50:18.589Z,16.15
2019-02-23T06:52:46.486Z,16.20
2019-02-23T06:55:14.437Z,15.95
2019-02-23T06:57:43.541Z,18.35
2019-02-23T07:00:15.184Z,16.57
2019-02-23T07:02:43.095Z,19.30
2019-02-23T07:05:11.005Z,17.20
2019-02-23T07:07:39.401Z,15.55
2019-02-23T07:10:09.370Z,16.90
2019-02-23T07:12:38.303Z,14.95
2019-02-23T07:15:06.848Z,15.75
2019-02-23T07:17:34.879Z,18.05
2019-02-23T07:20:02.781Z,17.52
2019-02-23T07:22:30.709Z,15.85
2019-02-23T07:24:58.929Z,15.95
2019-02-23T07:27:27.325Z,17.00
2019-02-23T07:29:56.366Z,14.80
2019-02-23T07:32:26.757Z,18.17
2019-02-23T07:34:54.856Z,16.40
2019-02-23T07:37:24.300Z,16.12
2019-02-23T07:39:52.553Z,16.10
2019-02-23T07:42:20.571Z,17.17
2019-02-23T07:44:48.543Z,16.48
2019-02-23T07:47:16.600Z,18.23
2019-02-23T07:49:44.469Z,18.00
2019-02-23T07:52:12.366Z,16.82
2019-02-23T07:54:40.190Z,18.07
2019-02-23T07:57:08.151Z,17.40
2019-02-23T07:59:35.984Z,16.70
2019-02-23T08:02:03.822Z,16.25
2019-02-23T08:04:31.747Z,16.77
2019-02-23T08:06:59.613Z,16.50
2019-02-23T08:09:27.536Z,16.27
2019-02-23T08:11:55.458Z,17.32
2019-02-23T08:14:23.461Z,18.20
2019-02-23T08:16:51.361Z,16.95
2019-02-23T08:19:19.323Z,17.23
2019-02-23T08:21:47.199Z,17.50
2019-02-23T08:24:15.683Z,17.42
2019-02-23T08:26:43.558Z,17.27
2019-02-23T08:29:11.477Z,17.00
2019-02-23T08:31:39.446Z,18.62
2019-02-23T08:34:07.364Z,17.17
2019-02-23T08:36:35.320Z,17.23
2019-02-23T08:39:03.573Z,16.00
2019-02-23T08:41:31.445Z,15.68
2019-02-23T08:43:59.407Z,18.27
2019-02-23T08:46:27.285Z,18.15
2019-02-23T08:48:55.163Z,18.20
2019-02-23T08:51:23.151Z,17.62
2019-02-23T08:53:51.027Z,16.55
2019-02-23T08:56:18.888Z,17.50
2019-02-23T08:58:47.063Z,16.15
2019-02-23T09:01:14.937Z,16.55
2019-02-23T09:03:43.169Z,16.67
2019-02-23T09:06:11.249Z,15.15
2019-02-23T09:08:39.122Z,15.15
2019-02-23T09:11:06.975Z,17.32
2019-02-23T09:13:35.036Z,18.05
2019-02-23T09:16:02.964Z,16.60
2019-02-23T09:18:30.841Z,17.27
2019-02-23T09:20:59.105Z,17.25
2019-02-23T09:23:27.059Z,17.37
2019-02-23T09:25:54.993Z,18.05
2019-02-23T09:28:22.818Z,17.98
2019-02-23T09:30:50.674Z,16.93
2019-02-23T09:33:18.524Z,17.02
2019-02-23T09:35:46.394Z,17.12
2019-02-23T09:38:14.251Z,18.30
2019-02-23T09:40:42.166Z,19.17
2019-02-23T09:43:10.233Z,19.23
2019-02-23T09:45:38.128Z,17.00
2019-02-23T09:48:06.016Z,18.10
2019-02-23T09:50:33.935Z,18.95
2019-02-23T09:53:10.789Z,16.52
2019-02-23T09:55:31.479Z,16.80
2019-02-23T09:57:59.399Z,17.02
2019-02-23T10:00:27.371Z,17.60
2019-02-23T10:02:55.261Z,19.42
2019-02-23T10:05:23.161Z,17.85
2019-02-23T10:07:51.197Z,16.65
2019-02-23T10:10:19.038Z,17.73
2019-02-23T10:12:46.937Z,18.05
2019-02-23T10:15:14.795Z,17.70
2019-02-23T10:17:42.739Z,16.93
2019-02-23T10:20:10.581Z,18.20
2019-02-23T10:22:39.626Z,18.95
2019-02-23T10:25:07.874Z,16.32
2019-02-23T10:27:35.691Z,19.07
2019-02-23T10:30:03.687Z,18.57
2019-02-23T10:32:31.563Z,18.13
2019-02-23T10:34:59.450Z,18.50
2019-02-23T10:37:27.286Z,19.30
2019-02-23T10:39:55.147Z,21.47
2019-02-23T10:42:23.367Z,20.87
2019-02-23T10:44:51.294Z,21.60
2019-02-23T10:47:19.786Z,17.37
2019-02-23T10:49:55.170Z,17.73
2019-02-23T10:52:23.017Z,17.93
2019-02-23T10:54:50.997Z,18.97
2019-02-23T10:57:18.926Z,18.17
2019-02-23T10:59:48.431Z,18.97
2019-02-23T11:02:18.062Z,18.60
2019-02-23T11:04:46.056Z,18.70
2019-02-23T11:07:14.124Z,17.30
2019-02-23T11:09:42.279Z,17.27
2019-02-23T11:12:15.497Z,17.00
2019-02-23T11:14:50.414Z,16.67
2019-02-23T11:17:18.182Z,17.35
2019-02-23T11:19:46.679Z,16.90
2019-02-23T11:22:16.267Z,16.90
2019-02-23T11:24:45.726Z,17.17
2019-02-23T11:27:15.554Z,16.25
2019-02-23T11:29:43.594Z,17.98
2019-02-23T11:32:13.604Z,18.02
2019-02-23T11:34:41.604Z,16.42
2019-02-23T11:37:09.648Z,16.20
2019-02-23T11:39:39.033Z,16.57
2019-02-23T11:42:12.593Z,15.48
2019-02-23T11:44:42.126Z,16.55
2019-02-23T11:47:10.070Z,14.47
2019-02-23T11:49:38.039Z,17.05
2019-02-23T11:52:06.035Z,14.28
2019-02-23T11:54:36.002Z,14.73
2019-02-23T11:57:08.108Z,15.28
2019-02-23T11:59:37.191Z,15.68
2019-02-23T12:02:05.227Z,17.02
2019-02-23T12:04:36.640Z,14.58
2019-02-23T12:07:14.177Z,12.88
2019-02-23T12:09:42.616Z,14.45
2019-02-23T12:12:11.509Z,14.75
2019-02-23T12:14:39.806Z,14.00
2019-02-23T12:17:14.090Z,13.50
2019-02-23T12:19:48.151Z,14.20
2019-02-23T12:22:16.264Z,14.78
2019-02-23T12:24:46.917Z,13.98
2019-02-23T12:27:16.873Z,12.30
2019-02-23T12:29:46.158Z,12.88
2019-02-23T12:32:15.261Z,13.65
2019-02-23T12:34:43.311Z,13.13
2019-02-23T12:37:11.390Z,13.83
2019-02-23T12:39:39.370Z,12.58
2019-02-23T12:42:07.408Z,12.70
2019-02-23T12:44:37.411Z,13.15
2019-02-23T12:47:06.096Z,12.82
2019-02-23T12:49:34.619Z,11.90
2019-02-23T12:52:04.789Z,13.30
2019-02-23T12:54:34.386Z,12.88
2019-02-23T12:57:02.347Z,11.83
2019-02-23T12:59:31.686Z,11.90
2019-02-23T13:02:03.636Z,12.47
2019-02-23T13:04:32.569Z,12.55
2019-02-23T13:07:07.914Z,12.80
2019-02-23T13:09:38.392Z,10.85
2019-02-23T13:12:27.930Z,14.18
2019-02-23T13:15:06.206Z,11.70
2019-02-23T13:18:21.282Z,11.90
2019-02-23T13:21:14.514Z,11.33
2019-02-23T13:24:28.333Z,13.20
2019-02-23T13:26:57.557Z,13.20
2019-02-23T13:29:34.566Z,12.55
2019-02-23T13:32:24.909Z,12.20
2019-02-23T13:35:20.201Z,11.10
2019-02-23T13:38:23.838Z,10.70
2019-02-23T13:41:13.768Z,12.70
2019-02-23T13:44:02.323Z,11.05
2019-02-23T13:46:57.320Z,10.30
2019-02-23T13:49:45.615Z,11.05
2019-02-23T13:52:27.618Z,11.20
2019-02-23T13:55:32.847Z,11.75
2019-02-23T13:58:11.326Z,11.48
2019-02-23T14:01:01.834Z,10.50
2019-02-23T14:03:50.031Z,10.15
2019-02-23T14:06:37.546Z,9.10
2019-02-23T14:09:23.600Z,9.78
2019-02-23T14:12:19.725Z,9.65
2019-02-23T14:15:07.781Z,11.68
2019-02-23T14:17:40.497Z,10.65
2019-02-23T14:20:27.939Z,10.35
2019-02-23T14:23:20.977Z,10.70
2019-02-23T14:26:00.818Z,10.03
2019-02-23T14:29:01.728Z,9.85
2019-02-23T14:31:47.454Z,8.95
2019-02-23T14:34:37.196Z,9.25
2019-02-23T14:37:33.362Z,9.08
2019-02-23T14:40:26.326Z,10.88
2019-02-23T14:43:08.110Z,10.48
2019-02-23T14:45:55.131Z,9.93
2019-02-23T14:48:35.535Z,9.70
2019-02-23T14:51:21.512Z,9.48
2019-02-23T14:54:17.575Z,10.28
2019-02-23T14:56:49.198Z,8.13
2019-02-23T14:59:42.481Z,9.00
2019-02-23T15:02:25.221Z,9.38
2019-02-23T15:05:15.229Z,9.05
2019-02-23T15:07:49.384Z,8.33
2019-02-23T15:10:31.338Z,8.90
2019-02-23T15:13:09.953Z,8.90
2019-02-23T15:15:55.717Z,9.53
2019-02-23T15:18:49.013Z,8.55
2019-02-23T15:21:25.796Z,9.10
2019-02-23T15:24:11.574Z,8.73
2019-02-23T15:26:58.626Z,8.70
2019-02-23T15:29:38.871Z,8.03
2019-02-23T15:32:32.034Z,9.63
2019-02-23T15:35:25.169Z,9.75
2019-02-23T15:38:16.397Z,8.40
2019-02-23T15:40:55.769Z,10.50
2019-02-23T15:43:35.896Z,10.10
2019-02-23T15:46:28.751Z,9.75
2019-02-23T15:49:18.794Z,8.70
2019-02-23T15:51:46.733Z,9.55
2019-02-23T15:54:14.714Z,9.93
2019-02-23T15:56:42.630Z,9.03
2019-02-23T15:59:10.529Z,8.58
2019-02-23T16:01:38.442Z,8.78
2019-02-23T16:04:06.671Z,8.60
2019-02-23T16:06:34.709Z,9.85
2019-02-23T16:09:02.756Z,8.25
2019-02-23T16:11:30.759Z,10.05
2019-02-23T16:13:58.679Z,9.10
2019-02-23T16:16:26.718Z,9.45
2019-02-23T16:18:54.638Z,9.18
2019-02-23T16:21:22.535Z,9.10
2019-02-23T16:23:50.516Z,9.30
2019-02-23T16:26:18.487Z,9.45
2019-02-23T16:28:46.415Z,9.25
2019-02-23T16:31:14.339Z,8.95
2019-02-23T16:33:42.228Z,10.15
2019-02-23T16:36:10.160Z,11.12
2019-02-23T16:38:38.040Z,9.00
2019-02-23T16:41:05.973Z,8.70
2019-02-23T16:43:33.921Z,11.08
2019-02-23T16:46:01.863Z,8.25
2019-02-23T16:48:29.810Z,9.13
2019-02-23T16:50:57.833Z,10.08
2019-02-23T16:53:26.116Z,10.75
2019-02-23T16:55:54.028Z,10.30
2019-02-23T16:58:21.994Z,11.48
2019-02-23T17:00:49.930Z,12.63
2019-02-23T17:03:17.986Z,11.55
2019-02-23T17:05:45.880Z,12.30
2019-02-23T17:08:13.809Z,11.30
2019-02-23T17:10:41.786Z,10.70
2019-02-23T17:13:10.284Z,9.70
2019-02-23T17:15:38.167Z,8.75
2019-02-23T17:18:06.064Z,10.63
2019-02-23T17:20:34.022Z,10.23
2019-02-23T17:23:02.302Z,10.60
2019-02-23T17:25:31.570Z,9.33
2019-02-23T17:27:59.518Z,11.20
2019-02-23T17:30:27.526Z,10.90
2019-02-23T17:32:57.063Z,12.53
2019-02-23T17:35:25.103Z,10.93
2019-02-23T17:37:52.986Z,9.88
2019-02-23T17:40:20.876Z,11.08
2019-02-23T17:42:48.778Z,9.55
2019-02-23T17:45:16.790Z,8.80
2019-02-23T17:47:44.722Z,9.33
2019-02-23T17:50:13.046Z,9.10
2019-02-23T17:52:40.933Z,9.65
2019-02-23T17:55:08.859Z,9.58
2019-02-23T17:57:36.748Z,8.50
2019-02-23T18:00:04.802Z,11.18
2019-02-23T18:02:32.701Z,9.13
2019-02-23T18:05:00.677Z,8.90
2019-02-23T18:07:28.640Z,10.40
2019-02-23T18:09:57.668Z,9.18
2019-02-23T18:12:25.595Z,12.53
2019-02-23T18:14:53.602Z,9.83
2019-02-23T18:17:21.702Z,13.75
2019-02-23T18:19:49.702Z,9.95
2019-02-23T18:22:20.258Z,11.78
2019-02-23T18:24:49.313Z,9.53
2019-02-23T18:27:21.988Z,9.33
2019-02-23T18:29:49.984Z,9.68
2019-02-23T18:32:19.860Z,9.70
2019-02-23T18:34:47.934Z,9.73
2019-02-23T18:37:18.242Z,9.10
2019-02-23T18:39:47.606Z,9.35
2019-02-23T18:42:17.174Z,10.60
2019-02-23T18:44:45.715Z,11.33
2019-02-23T18:47:13.712Z,9.00
2019-02-23T18:49:41.620Z,9.00
2019-02-23T18:52:12.643Z,9.95
2019-02-23T18:54:43.602Z,9.10
2019-02-23T18:57:13.615Z,12.15
2019-02-23T18:59:41.973Z,10.63
2019-02-23T19:02:10.025Z,10.28
2019-02-23T19:04:37.952Z,11.05
2019-02-23T19:07:05.917Z,9.43
2019-02-23T19:09:35.363Z,10.90
2019-02-23T19:12:03.405Z,11.05
2019-02-23T19:14:31.349Z,10.82
2019-02-23T19:17:03.043Z,10.53
2019-02-23T19:19:33.988Z,11.00
2019-02-23T19:22:02.509Z,11.12
2019-02-23T19:24:30.665Z,11.88
2019-02-23T19:26:59.090Z,10.45
2019-02-23T19:29:27.021Z,11.50
2019-02-23T19:31:57.841Z,11.25
2019-02-23T19:34:27.874Z,12.20
2019-02-23T19:36:57.420Z,10.35
2019-02-23T19:39:25.395Z,13.55
2019-02-23T19:41:53.421Z,13.58
2019-02-23T19:44:22.483Z,13.32
2019-02-23T19:46:53.917Z,14.55
2019-02-23T19:49:23.421Z,12.10
2019-02-23T19:51:52.358Z,11.95
2019-02-23T19:54:22.199Z,12.00
2019-02-23T19:56:52.294Z,11.18
2019-02-23T19:59:20.367Z,11.93
2019-02-23T20:01:48.313Z,12.25
2019-02-23T20:04:18.135Z,13.28
2019-02-23T20:06:50.062Z,10.63
2019-02-23T20:09:22.264Z,12.03
2019-02-23T20:11:52.321Z,15.63
2019-02-23T20:14:26.063Z,17.77
2019-02-23T20:17:01.222Z,16.35
2019-02-23T20:19:27.274Z,14.60
2019-02-23T20:21:55.685Z,18.17
2019-02-23T20:24:29.311Z,14.15
2019-02-23T20:26:57.783Z,14.75
2019-02-23T20:29:28.277Z,13.65
2019-02-23T20:31:58.588Z,12.95
2019-02-23T20:34:27.009Z,13.20
2019-02-23T20:36:56.855Z,12.58
2019-02-23T20:39:24.948Z,11.20
2019-02-23T20:41:54.404Z,14.43
2019-02-23T20:44:25.554Z,11.48
2019-02-23T20:46:58.167Z,12.45
2019-02-23T20:49:28.394Z,12.45
2019-02-23T20:51:56.254Z,12.40
2019-02-23T20:54:24.580Z,10.70
2019-02-23T20:56:53.531Z,13.15
2019-02-23T20:59:49.137Z,11.25
2019-02-23T21:02:18.325Z,11.65
2019-02-23T21:05:06.779Z,11.93
2019-02-23T21:07:36.438Z,13.98
2019-02-23T21:10:10.995Z,13.10
2019-02-23T21:12:35.861Z,10.95
2019-02-23T21:15:04.243Z,12.55
2019-02-23T21:17:32.312Z,10.93
2019-02-23T21:20:00.673Z,11.90
2019-02-23T21:22:29.958Z,10.15
2019-02-23T21:25:00.794Z,12.18
2019-02-23T21:27:30.372Z,11.03
2019-02-23T21:29:59.466Z,11.93
2019-02-23T21:32:29.262Z,11.05
2019-02-23T21:34:58.845Z,12.13
2019-02-23T21:37:28.384Z,11.90
2019-02-23T21:39:58.603Z,10.98
2019-02-23T21:42:27.597Z,11.97
2019-02-23T21:45:00.716Z,11.88
2019-02-23T21:47:28.530Z,11.10
2019-02-23T21:49:56.553Z,12.07
2019-02-23T21:52:25.896Z,12.53
2019-02-23T21:54:54.331Z,11.28
2019-02-23T21:57:22.560Z,12.03
2019-02-23T21:59:50.797Z,13.13
2019-02-23T22:02:20.769Z,11.30
2019-02-23T22:04:50.438Z,12.30
2019-02-23T22:07:18.421Z,12.33
2019-02-23T22:09:47.468Z,12.75
2019-02-23T22:12:17.779Z,11.38
2019-02-23T22:14:54.374Z,13.45
2019-02-23T22:17:25.165Z,12.03
2019-02-23T22:19:53.618Z,12.70
2019-02-23T22:22:21.649Z,11.45
2019-02-23T22:24:50.860Z,11.40
2019-02-23T22:27:19.093Z,11.65
2019-02-23T22:29:48.517Z,12.55
2019-02-23T22:32:16.543Z,12.20
2019-02-23T22:34:44.662Z,11.55
2019-02-23T22:37:14.947Z,11.78
2019-02-23T22:39:44.116Z,11.45
2019-02-23T22:42:13.383Z,11.30
2019-02-23T22:44:41.402Z,13.08
2019-02-23T22:47:09.382Z,11.50
2019-02-23T22:49:37.594Z,11.78
2019-02-23T22:52:06.485Z,13.20
2019-02-23T22:54:34.617Z,12.73
2019-02-23T22:57:04.448Z,14.38
2019-02-23T22:59:32.908Z,11.85
2019-02-23T23:02:02.884Z,12.07
2019-02-23T23:04:41.334Z,14.70
2019-02-23T23:07:12.809Z,13.00
2019-02-23T23:09:44.323Z,13.80
2019-02-23T23:12:12.318Z,13.55
2019-02-23T23:14:41.478Z,15.20
2019-02-23T23:17:12.480Z,14.30
2019-02-23T23:19:40.953Z,11.68
2019-02-23T23:22:09.392Z,13.88
2019-02-23T23:24:37.512Z,12.35
2019-02-23T23:27:10.824Z,13.88
2019-02-23T23:29:39.197Z,12.73
2019-02-23T23:32:08.188Z,12.85
2019-02-23T23:34:37.365Z,10.70
2019-02-23T23:37:05.384Z,10.48
2019-02-23T23:39:33.882Z,11.40
2019-02-23T23:42:02.206Z,9.93
2019-02-23T23:44:30.556Z,14.20
2019-02-23T23:47:00.748Z,13.93
2019-02-23T23:49:30.628Z,11.90
2019-02-23T23:51:58.529Z,13.70
2019-02-23T23:54:26.541Z,13.35
2019-02-23T23:56:55.845Z,11.15
2019-02-23T23:59:24.903Z,11.85
